This is the latest recevied weather packets stored in our database for station/object LRSM. If no packets are shown the sender has not sent any weather packets the latest 10 day(s).
| Time | Temp. | Humidity | Pressure | Rain* | Wind** | Luminosity | Snow |
|---|---|---|---|---|---|---|---|
| 1777772012 | 7.78° C | 53% | 1022 hPa | - | - | - | - |
| 1777771112 | 3.89° C | 65% | 1022 hPa | - | - | - | - |
| 1777770213 | 3.89° C | 65% | 1022 hPa | - | - | - | - |
| 1777769312 | 3.89° C | 65% | 1022 hPa | - | - | - | - |
| 1777768412 | 3.89° C | 65% | 1022 hPa | - | - | - | - |
| 1777767512 | 5° C | 66% | 1022 hPa | - | - | - | - |
| 1777766612 | 5° C | 66% | 1022 hPa | - | - | - | - |
| 1777765712 | 6.11° C | 57% | 1022 hPa | - | - | - | - |
| 1777764812 | 6.11° C | 57% | 1022 hPa | - | - | - | - |
| 1777763913 | 7.22° C | 57% | 1022 hPa | - | - | - | - |
| 1777763013 | 7.22° C | 57% | 1022 hPa | - | - | - | - |
| 1777762112 | 6.11° C | 61% | 1022 hPa | - | - | - | - |
| 1777761212 | 6.11° C | 61% | 1022 hPa | - | - | - | - |
| 1777760312 | 7.22° C | 57% | 1022 hPa | - | - | - | - |
| 1777759413 | 7.22° C | 57% | 1022 hPa | - | - | - | - |
| 1777758512 | 8.89° C | 54% | 1022 hPa | - | - | - | - |
| 1777757613 | 8.89° C | 54% | 1022 hPa | - | - | - | - |
| 1777756712 | 10° C | 47% | 1022 hPa | - | - | - | - |
| 1777755812 | 10° C | 47% | 1022 hPa | - | - | - | - |
| 1777754912 | 10° C | 47% | 1022 hPa | - | - | - | - |
| 1777754012 | 10° C | 47% | 1022 hPa | - | - | - | - |
| 1777753113 | 10° C | 47% | 1021 hPa | - | - | - | - |
| 1777752212 | 10° C | 47% | 1021 hPa | - | - | - | - |
| 1777751312 | 11.11° C | 47% | 1021 hPa | - | - | - | - |
| 1777750413 | 11.11° C | 47% | 1021 hPa | - | - | - | - |
* Rain since midnight (hover to see other rain measurements)
** Current wind speed in m/s (hover to see current wind gust speed)